sensor_id;sensor_type;location;lat;lon;timestamp;temperature;humidity
29413;DHT22;16389;50.126;8.450;2023-11-18T00:01:35;3.00;99.90
29413;DHT22;16389;50.126;8.450;2023-11-18T00:04:01;3.00;99.90
29413;DHT22;16389;50.126;8.450;2023-11-18T00:06:27;3.00;99.90
29413;DHT22;16389;50.126;8.450;2023-11-18T00:08:53;3.00;99.90
29413;DHT22;16389;50.126;8.450;2023-11-18T00:11:22;3.00;99.90
29413;DHT22;16389;50.126;8.450;2023-11-18T00:13:49;3.00;99.90
29413;DHT22;16389;50.126;8.450;2023-11-18T00:16:15;2.90;99.90
29413;DHT22;16389;50.126;8.450;2023-11-18T00:18:43;2.90;99.90
29413;DHT22;16389;50.126;8.450;2023-11-18T00:21:08;2.80;99.90
29413;DHT22;16389;50.126;8.450;2023-11-18T00:23:44;2.80;99.90
29413;DHT22;16389;50.126;8.450;2023-11-18T00:26:10;2.80;99.90
29413;DHT22;16389;50.126;8.450;2023-11-18T00:28:36;2.80;99.90
29413;DHT22;16389;50.126;8.450;2023-11-18T00:31:02;2.80;99.90
29413;DHT22;16389;50.126;8.450;2023-11-18T00:33:30;2.80;99.90
29413;DHT22;16389;50.126;8.450;2023-11-18T00:35:56;2.70;99.90
29413;DHT22;16389;50.126;8.450;2023-11-18T00:38:21;2.70;99.90
29413;DHT22;16389;50.126;8.450;2023-11-18T00:40:47;2.60;99.90
29413;DHT22;16389;50.126;8.450;2023-11-18T00:43:13;2.60;99.90
29413;DHT22;16389;50.126;8.450;2023-11-18T00:45:38;2.60;99.90
29413;DHT22;16389;50.126;8.450;2023-11-18T00:48:06;2.60;99.90
29413;DHT22;16389;50.126;8.450;2023-11-18T00:50:31;2.50;99.90
29413;DHT22;16389;50.126;8.450;2023-11-18T00:52:58;2.50;99.90
29413;DHT22;16389;50.126;8.450;2023-11-18T00:55:27;2.50;99.90
29413;DHT22;16389;50.126;8.450;2023-11-18T00:57:56;2.50;99.90
29413;DHT22;16389;50.126;8.450;2023-11-18T01:00:21;2.50;99.90
29413;DHT22;16389;50.126;8.450;2023-11-18T01:02:48;2.50;99.90
29413;DHT22;16389;50.126;8.450;2023-11-18T01:05:15;2.50;99.90
29413;DHT22;16389;50.126;8.450;2023-11-18T01:07:41;2.50;99.90
29413;DHT22;16389;50.126;8.450;2023-11-18T01:10:07;2.60;99.90
29413;DHT22;16389;50.126;8.450;2023-11-18T01:12:35;2.60;99.90
29413;DHT22;16389;50.126;8.450;2023-11-18T01:15:01;2.50;99.90
29413;DHT22;16389;50.126;8.450;2023-11-18T01:17:28;2.50;99.90
29413;DHT22;16389;50.126;8.450;2023-11-18T01:19:55;2.50;99.90
29413;DHT22;16389;50.126;8.450;2023-11-18T01:22:20;2.50;99.90
29413;DHT22;16389;50.126;8.450;2023-11-18T01:24:46;2.50;99.90
29413;DHT22;16389;50.126;8.450;2023-11-18T01:27:12;2.50;99.90
29413;DHT22;16389;50.126;8.450;2023-11-18T01:29:38;2.60;99.90
29413;DHT22;16389;50.126;8.450;2023-11-18T01:32:07;2.60;99.90
29413;DHT22;16389;50.126;8.450;2023-11-18T01:34:37;2.70;99.90
29413;DHT22;16389;50.126;8.450;2023-11-18T01:37:08;2.70;99.90
29413;DHT22;16389;50.126;8.450;2023-11-18T01:39:35;2.70;99.90
29413;DHT22;16389;50.126;8.450;2023-11-18T01:42:01;2.80;99.90
29413;DHT22;16389;50.126;8.450;2023-11-18T01:44:28;2.90;99.90
29413;DHT22;16389;50.126;8.450;2023-11-18T01:46:58;3.00;99.90
29413;DHT22;16389;50.126;8.450;2023-11-18T01:49:24;3.10;99.90
29413;DHT22;16389;50.126;8.450;2023-11-18T01:51:53;3.20;99.90
29413;DHT22;16389;50.126;8.450;2023-11-18T01:54:19;3.30;99.90
29413;DHT22;16389;50.126;8.450;2023-11-18T01:56:50;3.30;99.90
29413;DHT22;16389;50.126;8.450;2023-11-18T01:59:16;3.30;99.90
29413;DHT22;16389;50.126;8.450;2023-11-18T02:01:49;3.30;99.90
29413;DHT22;16389;50.126;8.450;2023-11-18T02:04:15;3.30;99.90
29413;DHT22;16389;50.126;8.450;2023-11-18T02:06:42;3.30;99.90
29413;DHT22;16389;50.126;8.450;2023-11-18T02:09:14;3.30;99.90
29413;DHT22;16389;50.126;8.450;2023-11-18T02:12:07;3.30;99.90
29413;DHT22;16389;50.126;8.450;2023-11-18T02:14:39;3.30;99.90
29413;DHT22;16389;50.126;8.450;2023-11-18T02:17:05;3.20;99.90
29413;DHT22;16389;50.126;8.450;2023-11-18T02:19:35;3.20;99.90
29413;DHT22;16389;50.126;8.450;2023-11-18T02:22:01;3.10;99.90
29413;DHT22;16389;50.126;8.450;2023-11-18T02:24:30;3.00;99.90
29413;DHT22;16389;50.126;8.450;2023-11-18T02:27:00;3.00;99.90
29413;DHT22;16389;50.126;8.450;2023-11-18T02:29:30;2.90;99.90
29413;DHT22;16389;50.126;8.450;2023-11-18T02:32:01;2.80;99.90
29413;DHT22;16389;50.126;8.450;2023-11-18T02:34:37;2.70;99.90
29413;DHT22;16389;50.126;8.450;2023-11-18T02:37:06;2.60;99.90
29413;DHT22;16389;50.126;8.450;2023-11-18T02:39:38;2.60;99.90
29413;DHT22;16389;50.126;8.450;2023-11-18T02:42:07;2.50;99.90
29413;DHT22;16389;50.126;8.450;2023-11-18T02:44:35;2.50;99.90
29413;DHT22;16389;50.126;8.450;2023-11-18T02:47:02;2.40;99.90
29413;DHT22;16389;50.126;8.450;2023-11-18T02:49:29;2.30;99.90
29413;DHT22;16389;50.126;8.450;2023-11-18T02:51:55;2.20;99.90
29413;DHT22;16389;50.126;8.450;2023-11-18T02:54:21;2.20;99.90
29413;DHT22;16389;50.126;8.450;2023-11-18T02:56:47;2.20;99.90
29413;DHT22;16389;50.126;8.450;2023-11-18T02:59:13;2.10;99.90
29413;DHT22;16389;50.126;8.450;2023-11-18T03:01:39;2.10;99.90
29413;DHT22;16389;50.126;8.450;2023-11-18T03:04:05;2.00;99.90
29413;DHT22;16389;50.126;8.450;2023-11-18T03:06:31;2.00;99.90
29413;DHT22;16389;50.126;8.450;2023-11-18T03:08:58;2.00;99.90
29413;DHT22;16389;50.126;8.450;2023-11-18T03:11:24;2.00;99.90
29413;DHT22;16389;50.126;8.450;2023-11-18T03:13:50;2.00;99.90
29413;DHT22;16389;50.126;8.450;2023-11-18T03:16:15;1.90;99.90
29413;DHT22;16389;50.126;8.450;2023-11-18T03:18:42;2.00;99.90
29413;DHT22;16389;50.126;8.450;2023-11-18T03:21:15;1.90;99.90
29413;DHT22;16389;50.126;8.450;2023-11-18T03:23:41;1.90;99.90
29413;DHT22;16389;50.126;8.450;2023-11-18T03:26:10;1.90;99.90
29413;DHT22;16389;50.126;8.450;2023-11-18T03:28:39;1.90;99.90
29413;DHT22;16389;50.126;8.450;2023-11-18T03:31:06;1.90;99.90
29413;DHT22;16389;50.126;8.450;2023-11-18T03:33:32;1.90;99.90
29413;DHT22;16389;50.126;8.450;2023-11-18T03:35:58;2.00;99.90
29413;DHT22;16389;50.126;8.450;2023-11-18T03:38:24;2.10;99.90
29413;DHT22;16389;50.126;8.450;2023-11-18T03:40:50;2.10;99.90
29413;DHT22;16389;50.126;8.450;2023-11-18T03:43:17;2.30;99.90
29413;DHT22;16389;50.126;8.450;2023-11-18T03:45:43;2.40;99.90
29413;DHT22;16389;50.126;8.450;2023-11-18T03:48:09;2.40;99.90
29413;DHT22;16389;50.126;8.450;2023-11-18T03:50:40;2.50;99.90
29413;DHT22;16389;50.126;8.450;2023-11-18T03:53:05;2.60;99.90
29413;DHT22;16389;50.126;8.450;2023-11-18T03:55:32;2.60;99.90
29413;DHT22;16389;50.126;8.450;2023-11-18T03:57:59;2.70;99.90
29413;DHT22;16389;50.126;8.450;2023-11-18T04:00:25;2.70;99.90
29413;DHT22;16389;50.126;8.450;2023-11-18T04:02:57;2.80;99.90
29413;DHT22;16389;50.126;8.450;2023-11-18T04:05:23;2.80;99.90
29413;DHT22;16389;50.126;8.450;2023-11-18T04:07:49;2.80;99.90
29413;DHT22;16389;50.126;8.450;2023-11-18T04:10:15;2.90;99.90
29413;DHT22;16389;50.126;8.450;2023-11-18T04:12:40;3.00;99.90
29413;DHT22;16389;50.126;8.450;2023-11-18T04:15:11;3.10;99.90
29413;DHT22;16389;50.126;8.450;2023-11-18T04:17:37;3.10;99.90
29413;DHT22;16389;50.126;8.450;2023-11-18T04:20:03;3.20;99.90
29413;DHT22;16389;50.126;8.450;2023-11-18T04:22:34;3.20;99.90
29413;DHT22;16389;50.126;8.450;2023-11-18T04:24:59;3.20;99.90
29413;DHT22;16389;50.126;8.450;2023-11-18T04:27:25;3.30;99.90
29413;DHT22;16389;50.126;8.450;2023-11-18T04:29:51;3.30;99.90
29413;DHT22;16389;50.126;8.450;2023-11-18T04:32:16;3.40;99.90
29413;DHT22;16389;50.126;8.450;2023-11-18T04:34:42;3.40;99.90
29413;DHT22;16389;50.126;8.450;2023-11-18T04:37:08;3.40;99.90
29413;DHT22;16389;50.126;8.450;2023-11-18T04:39:34;3.40;99.90
29413;DHT22;16389;50.126;8.450;2023-11-18T04:42:00;3.50;99.90
29413;DHT22;16389;50.126;8.450;2023-11-18T04:44:27;3.50;99.90
29413;DHT22;16389;50.126;8.450;2023-11-18T04:46:52;3.50;99.90
29413;DHT22;16389;50.126;8.450;2023-11-18T04:49:18;3.50;99.90
29413;DHT22;16389;50.126;8.450;2023-11-18T04:51:44;3.60;99.90
29413;DHT22;16389;50.126;8.450;2023-11-18T04:54:13;3.70;99.90
29413;DHT22;16389;50.126;8.450;2023-11-18T04:56:39;3.70;99.90
29413;DHT22;16389;50.126;8.450;2023-11-18T04:59:05;3.70;99.90
29413;DHT22;16389;50.126;8.450;2023-11-18T05:01:34;3.80;99.90
29413;DHT22;16389;50.126;8.450;2023-11-18T05:04:00;3.80;99.90
29413;DHT22;16389;50.126;8.450;2023-11-18T05:06:26;3.80;99.90
29413;DHT22;16389;50.126;8.450;2023-11-18T05:08:52;3.80;99.90
29413;DHT22;16389;50.126;8.450;2023-11-18T05:11:18;3.80;99.90
29413;DHT22;16389;50.126;8.450;2023-11-18T05:13:43;3.80;99.90
29413;DHT22;16389;50.126;8.450;2023-11-18T05:16:13;3.80;99.90
29413;DHT22;16389;50.126;8.450;2023-11-18T05:18:39;3.80;99.90
29413;DHT22;16389;50.126;8.450;2023-11-18T05:21:07;3.80;99.90
29413;DHT22;16389;50.126;8.450;2023-11-18T05:23:36;3.90;99.90
29413;DHT22;16389;50.126;8.450;2023-11-18T05:26:02;3.90;99.90
29413;DHT22;16389;50.126;8.450;2023-11-18T05:28:31;3.90;99.90
29413;DHT22;16389;50.126;8.450;2023-11-18T05:30:57;3.90;99.90
29413;DHT22;16389;50.126;8.450;2023-11-18T05:33:24;4.00;99.90
29413;DHT22;16389;50.126;8.450;2023-11-18T05:35:50;4.00;99.90
29413;DHT22;16389;50.126;8.450;2023-11-18T05:38:17;4.00;99.90
29413;DHT22;16389;50.126;8.450;2023-11-18T05:40:46;4.00;99.90
29413;DHT22;16389;50.126;8.450;2023-11-18T05:43:31;4.00;99.90
29413;DHT22;16389;50.126;8.450;2023-11-18T05:46:06;4.00;99.90
29413;DHT22;16389;50.126;8.450;2023-11-18T05:49:02;4.00;99.90
29413;DHT22;16389;50.126;8.450;2023-11-18T05:51:31;4.00;99.90
29413;DHT22;16389;50.126;8.450;2023-11-18T05:53:57;4.00;99.90
29413;DHT22;16389;50.126;8.450;2023-11-18T05:56:23;4.00;99.90
29413;DHT22;16389;50.126;8.450;2023-11-18T05:58:52;4.00;99.90
29413;DHT22;16389;50.126;8.450;2023-11-18T06:01:24;4.00;99.90
29413;DHT22;16389;50.126;8.450;2023-11-18T06:03:53;4.00;99.90
29413;DHT22;16389;50.126;8.450;2023-11-18T06:06:28;4.00;99.90
29413;DHT22;16389;50.126;8.450;2023-11-18T06:08:53;4.00;99.90
29413;DHT22;16389;50.126;8.450;2023-11-18T06:11:20;3.90;99.90
29413;DHT22;16389;50.126;8.450;2023-11-18T06:13:51;4.00;99.90
29413;DHT22;16389;50.126;8.450;2023-11-18T06:16:22;4.00;99.90
29413;DHT22;16389;50.126;8.450;2023-11-18T06:18:51;4.00;99.90
29413;DHT22;16389;50.126;8.450;2023-11-18T06:21:23;4.00;99.90
29413;DHT22;16389;50.126;8.450;2023-11-18T06:24:03;4.00;99.90
29413;DHT22;16389;50.126;8.450;2023-11-18T06:26:35;3.90;99.90
29413;DHT22;16389;50.126;8.450;2023-11-18T06:29:04;3.90;99.90
29413;DHT22;16389;50.126;8.450;2023-11-18T06:31:31;3.90;99.90
29413;DHT22;16389;50.126;8.450;2023-11-18T06:33:57;3.90;99.90
29413;DHT22;16389;50.126;8.450;2023-11-18T06:36:23;4.00;99.90
29413;DHT22;16389;50.126;8.450;2023-11-18T06:38:53;4.00;99.90
29413;DHT22;16389;50.126;8.450;2023-11-18T06:41:23;4.00;99.90
29413;DHT22;16389;50.126;8.450;2023-11-18T06:43:54;4.00;99.90
29413;DHT22;16389;50.126;8.450;2023-11-18T06:46:25;3.90;99.90
29413;DHT22;16389;50.126;8.450;2023-11-18T06:49:00;4.00;99.90
29413;DHT22;16389;50.126;8.450;2023-11-18T06:51:33;4.00;99.90
29413;DHT22;16389;50.126;8.450;2023-11-18T06:54:06;4.00;99.90
29413;DHT22;16389;50.126;8.450;2023-11-18T06:56:37;4.00;99.90
29413;DHT22;16389;50.126;8.450;2023-11-18T06:59:05;4.10;99.90
29413;DHT22;16389;50.126;8.450;2023-11-18T07:01:34;4.10;99.90
29413;DHT22;16389;50.126;8.450;2023-11-18T07:04:01;4.10;99.90
29413;DHT22;16389;50.126;8.450;2023-11-18T07:06:36;4.10;99.90
29413;DHT22;16389;50.126;8.450;2023-11-18T07:09:09;4.20;99.90
29413;DHT22;16389;50.126;8.450;2023-11-18T07:11:43;4.20;99.90
29413;DHT22;16389;50.126;8.450;2023-11-18T07:14:10;4.30;99.90
29413;DHT22;16389;50.126;8.450;2023-11-18T07:16:38;4.30;99.90
29413;DHT22;16389;50.126;8.450;2023-11-18T07:19:05;4.30;99.90
29413;DHT22;16389;50.126;8.450;2023-11-18T07:21:35;4.30;99.90
29413;DHT22;16389;50.126;8.450;2023-11-18T07:24:01;4.30;99.90
29413;DHT22;16389;50.126;8.450;2023-11-18T07:26:29;4.40;99.90
29413;DHT22;16389;50.126;8.450;2023-11-18T07:28:55;4.40;99.90
29413;DHT22;16389;50.126;8.450;2023-11-18T07:31:21;4.50;99.90
29413;DHT22;16389;50.126;8.450;2023-11-18T07:33:48;4.50;99.90
29413;DHT22;16389;50.126;8.450;2023-11-18T07:36:18;4.50;99.90
29413;DHT22;16389;50.126;8.450;2023-11-18T07:38:48;4.50;99.90
29413;DHT22;16389;50.126;8.450;2023-11-18T07:41:18;4.50;99.90
29413;DHT22;16389;50.126;8.450;2023-11-18T07:43:51;4.60;99.90
29413;DHT22;16389;50.126;8.450;2023-11-18T07:46:18;4.60;99.90
29413;DHT22;16389;50.126;8.450;2023-11-18T07:48:44;4.60;99.90
29413;DHT22;16389;50.126;8.450;2023-11-18T07:51:09;4.60;99.90
29413;DHT22;16389;50.126;8.450;2023-11-18T07:53:38;4.70;99.90
29413;DHT22;16389;50.126;8.450;2023-11-18T07:56:04;4.70;99.90
29413;DHT22;16389;50.126;8.450;2023-11-18T07:58:31;4.70;99.90
29413;DHT22;16389;50.126;8.450;2023-11-18T08:00:57;4.70;99.90
29413;DHT22;16389;50.126;8.450;2023-11-18T08:03:26;4.70;99.90
29413;DHT22;16389;50.126;8.450;2023-11-18T08:05:56;4.70;99.90
29413;DHT22;16389;50.126;8.450;2023-11-18T08:08:25;4.70;99.90
29413;DHT22;16389;50.126;8.450;2023-11-18T08:10:51;4.80;99.90
29413;DHT22;16389;50.126;8.450;2023-11-18T08:13:17;4.80;99.90
29413;DHT22;16389;50.126;8.450;2023-11-18T08:15:44;5.00;99.90
29413;DHT22;16389;50.126;8.450;2023-11-18T08:18:12;5.00;99.90
29413;DHT22;16389;50.126;8.450;2023-11-18T08:20:39;5.00;99.90
29413;DHT22;16389;50.126;8.450;2023-11-18T08:23:07;5.00;99.90
29413;DHT22;16389;50.126;8.450;2023-11-18T08:25:33;5.00;99.90
29413;DHT22;16389;50.126;8.450;2023-11-18T08:28:00;5.10;99.90
29413;DHT22;16389;50.126;8.450;2023-11-18T08:30:33;5.20;99.90
29413;DHT22;16389;50.126;8.450;2023-11-18T08:33:01;5.20;99.90
29413;DHT22;16389;50.126;8.450;2023-11-18T08:35:30;5.20;99.90
29413;DHT22;16389;50.126;8.450;2023-11-18T08:37:56;5.20;99.90
29413;DHT22;16389;50.126;8.450;2023-11-18T08:40:26;5.30;99.90
29413;DHT22;16389;50.126;8.450;2023-11-18T08:42:52;5.30;99.90
29413;DHT22;16389;50.126;8.450;2023-11-18T08:45:22;5.40;99.90
29413;DHT22;16389;50.126;8.450;2023-11-18T08:47:48;5.40;99.90
29413;DHT22;16389;50.126;8.450;2023-11-18T08:50:20;5.40;99.90
29413;DHT22;16389;50.126;8.450;2023-11-18T08:52:50;5.50;99.90
29413;DHT22;16389;50.126;8.450;2023-11-18T08:55:19;5.50;99.90
29413;DHT22;16389;50.126;8.450;2023-11-18T08:57:50;5.50;99.90
29413;DHT22;16389;50.126;8.450;2023-11-18T09:00:31;5.60;99.90
29413;DHT22;16389;50.126;8.450;2023-11-18T09:03:17;5.60;99.90
29413;DHT22;16389;50.126;8.450;2023-11-18T09:05:47;5.60;99.90
29413;DHT22;16389;50.126;8.450;2023-11-18T09:11:08;5.70;99.90
29413;DHT22;16389;50.126;8.450;2023-11-18T09:13:36;5.70;99.90
29413;DHT22;16389;50.126;8.450;2023-11-18T09:16:06;5.70;99.90
29413;DHT22;16389;50.126;8.450;2023-11-18T09:18:38;5.70;99.90
29413;DHT22;16389;50.126;8.450;2023-11-18T09:21:05;5.80;99.90
29413;DHT22;16389;50.126;8.450;2023-11-18T09:23:33;5.90;99.90
29413;DHT22;16389;50.126;8.450;2023-11-18T09:26:06;5.90;99.90
29413;DHT22;16389;50.126;8.450;2023-11-18T09:28:33;6.00;99.90
29413;DHT22;16389;50.126;8.450;2023-11-18T09:31:01;6.00;99.90
29413;DHT22;16389;50.126;8.450;2023-11-18T09:33:30;6.10;99.90
29413;DHT22;16389;50.126;8.450;2023-11-18T09:36:04;6.10;99.90
29413;DHT22;16389;50.126;8.450;2023-11-18T09:38:34;6.10;99.90
29413;DHT22;16389;50.126;8.450;2023-11-18T09:41:07;6.10;99.90
29413;DHT22;16389;50.126;8.450;2023-11-18T09:43:46;6.00;99.90
29413;DHT22;16389;50.126;8.450;2023-11-18T09:46:17;6.00;99.90
29413;DHT22;16389;50.126;8.450;2023-11-18T09:48:52;6.00;99.90
29413;DHT22;16389;50.126;8.450;2023-11-18T09:51:23;6.00;99.90
29413;DHT22;16389;50.126;8.450;2023-11-18T09:53:53;6.00;99.90
29413;DHT22;16389;50.126;8.450;2023-11-18T09:56:23;6.00;99.90
29413;DHT22;16389;50.126;8.450;2023-11-18T09:59:07;6.00;99.90
29413;DHT22;16389;50.126;8.450;2023-11-18T10:01:42;6.10;99.90
29413;DHT22;16389;50.126;8.450;2023-11-18T10:04:09;6.10;99.90
29413;DHT22;16389;50.126;8.450;2023-11-18T10:06:36;6.10;99.90
29413;DHT22;16389;50.126;8.450;2023-11-18T10:09:06;6.20;99.90
29413;DHT22;16389;50.126;8.450;2023-11-18T10:11:55;6.10;99.90
29413;DHT22;16389;50.126;8.450;2023-11-18T10:14:41;6.00;99.90
29413;DHT22;16389;50.126;8.450;2023-11-18T10:17:10;6.00;99.90
29413;DHT22;16389;50.126;8.450;2023-11-18T10:19:56;6.00;99.90
29413;DHT22;16389;50.126;8.450;2023-11-18T10:22:23;6.00;99.90
29413;DHT22;16389;50.126;8.450;2023-11-18T10:24:50;6.00;99.90
29413;DHT22;16389;50.126;8.450;2023-11-18T10:27:23;6.00;99.90
29413;DHT22;16389;50.126;8.450;2023-11-18T10:29:54;6.00;99.90
29413;DHT22;16389;50.126;8.450;2023-11-18T10:32:21;6.10;99.90
29413;DHT22;16389;50.126;8.450;2023-11-18T10:34:51;6.10;99.90
29413;DHT22;16389;50.126;8.450;2023-11-18T10:37:18;6.10;99.90
29413;DHT22;16389;50.126;8.450;2023-11-18T10:39:47;6.10;99.90
29413;DHT22;16389;50.126;8.450;2023-11-18T10:42:18;6.20;99.90
29413;DHT22;16389;50.126;8.450;2023-11-18T10:45:25;6.20;99.90
29413;DHT22;16389;50.126;8.450;2023-11-18T10:47:54;6.30;99.90
29413;DHT22;16389;50.126;8.450;2023-11-18T10:50:22;6.30;99.90
29413;DHT22;16389;50.126;8.450;2023-11-18T10:53:00;6.30;99.90
29413;DHT22;16389;50.126;8.450;2023-11-18T10:58:02;6.40;99.90
29413;DHT22;16389;50.126;8.450;2023-11-18T11:00:45;6.40;99.90
29413;DHT22;16389;50.126;8.450;2023-11-18T11:03:16;6.40;99.90
29413;DHT22;16389;50.126;8.450;2023-11-18T11:05:53;6.40;99.90
29413;DHT22;16389;50.126;8.450;2023-11-18T11:08:19;6.40;99.90
29413;DHT22;16389;50.126;8.450;2023-11-18T11:10:46;6.40;99.90
29413;DHT22;16389;50.126;8.450;2023-11-18T11:13:14;6.40;99.90
29413;DHT22;16389;50.126;8.450;2023-11-18T11:15:44;6.40;99.90
29413;DHT22;16389;50.126;8.450;2023-11-18T11:18:21;6.40;99.90
29413;DHT22;16389;50.126;8.450;2023-11-18T11:21:33;6.40;99.90
29413;DHT22;16389;50.126;8.450;2023-11-18T11:29:45;6.40;99.90
29413;DHT22;16389;50.126;8.450;2023-11-18T11:32:35;6.50;99.90
29413;DHT22;16389;50.126;8.450;2023-11-18T11:35:07;6.40;99.90
29413;DHT22;16389;50.126;8.450;2023-11-18T11:37:43;6.40;99.90
29413;DHT22;16389;50.126;8.450;2023-11-18T11:40:09;6.40;99.90
29413;DHT22;16389;50.126;8.450;2023-11-18T11:42:38;6.40;99.90
29413;DHT22;16389;50.126;8.450;2023-11-18T11:45:06;6.40;99.90
29413;DHT22;16389;50.126;8.450;2023-11-18T11:47:48;6.40;99.90
29413;DHT22;16389;50.126;8.450;2023-11-18T11:50:27;6.50;99.90
29413;DHT22;16389;50.126;8.450;2023-11-18T11:53:07;6.50;99.90
29413;DHT22;16389;50.126;8.450;2023-11-18T11:55:41;6.50;99.90
29413;DHT22;16389;50.126;8.450;2023-11-18T12:00:52;6.60;99.90
29413;DHT22;16389;50.126;8.450;2023-11-18T12:03:21;6.60;99.90
29413;DHT22;16389;50.126;8.450;2023-11-18T12:05:54;6.50;99.90
29413;DHT22;16389;50.126;8.450;2023-11-18T12:08:22;6.50;99.90
29413;DHT22;16389;50.126;8.450;2023-11-18T12:10:55;6.50;99.90
29413;DHT22;16389;50.126;8.450;2023-11-18T12:13:22;6.50;99.90
29413;DHT22;16389;50.126;8.450;2023-11-18T12:15:53;6.40;99.90
29413;DHT22;16389;50.126;8.450;2023-11-18T12:18:31;6.40;99.90
29413;DHT22;16389;50.126;8.450;2023-11-18T12:21:02;6.50;99.90
29413;DHT22;16389;50.126;8.450;2023-11-18T12:23:30;6.50;99.90
29413;DHT22;16389;50.126;8.450;2023-11-18T12:25:57;6.50;99.90
29413;DHT22;16389;50.126;8.450;2023-11-18T12:28:32;6.60;99.90
29413;DHT22;16389;50.126;8.450;2023-11-18T12:31:03;6.60;99.90
29413;DHT22;16389;50.126;8.450;2023-11-18T12:34:00;6.60;99.90
29413;DHT22;16389;50.126;8.450;2023-11-18T12:39:42;6.60;99.90
29413;DHT22;16389;50.126;8.450;2023-11-18T12:43:10;6.60;99.90
29413;DHT22;16389;50.126;8.450;2023-11-18T12:48:05;6.60;99.90
29413;DHT22;16389;50.126;8.450;2023-11-18T12:50:43;6.70;99.90
29413;DHT22;16389;50.126;8.450;2023-11-18T12:53:11;6.70;99.90
29413;DHT22;16389;50.126;8.450;2023-11-18T12:55:41;6.70;99.90
29413;DHT22;16389;50.126;8.450;2023-11-18T12:58:07;6.70;99.90
29413;DHT22;16389;50.126;8.450;2023-11-18T13:00:36;6.80;99.90
29413;DHT22;16389;50.126;8.450;2023-11-18T13:03:05;6.80;99.90
29413;DHT22;16389;50.126;8.450;2023-11-18T13:05:35;6.90;99.90
29413;DHT22;16389;50.126;8.450;2023-11-18T13:08:05;6.90;99.90
29413;DHT22;16389;50.126;8.450;2023-11-18T13:10:32;6.90;99.90
29413;DHT22;16389;50.126;8.450;2023-11-18T13:12:59;6.90;99.90
29413;DHT22;16389;50.126;8.450;2023-11-18T13:15:32;7.00;99.90
29413;DHT22;16389;50.126;8.450;2023-11-18T13:18:04;7.00;99.90
29413;DHT22;16389;50.126;8.450;2023-11-18T13:20:33;7.00;99.90
29413;DHT22;16389;50.126;8.450;2023-11-18T13:23:02;7.00;99.90
29413;DHT22;16389;50.126;8.450;2023-11-18T13:25:37;7.00;99.90
29413;DHT22;16389;50.126;8.450;2023-11-18T13:28:07;7.00;99.90
29413;DHT22;16389;50.126;8.450;2023-11-18T13:30:38;7.00;99.90
29413;DHT22;16389;50.126;8.450;2023-11-18T13:33:04;7.00;99.90
29413;DHT22;16389;50.126;8.450;2023-11-18T13:35:30;7.00;99.90
29413;DHT22;16389;50.126;8.450;2023-11-18T13:37:56;7.00;99.90
29413;DHT22;16389;50.126;8.450;2023-11-18T13:40:42;7.00;99.90
29413;DHT22;16389;50.126;8.450;2023-11-18T13:43:08;7.00;99.90
29413;DHT22;16389;50.126;8.450;2023-11-18T13:45:37;7.10;99.90
29413;DHT22;16389;50.126;8.450;2023-11-18T13:48:05;7.10;99.90
29413;DHT22;16389;50.126;8.450;2023-11-18T13:50:33;7.10;99.90
29413;DHT22;16389;50.126;8.450;2023-11-18T13:53:03;7.10;99.90
29413;DHT22;16389;50.126;8.450;2023-11-18T13:55:40;7.10;99.90
29413;DHT22;16389;50.126;8.450;2023-11-18T13:58:12;7.20;99.90
29413;DHT22;16389;50.126;8.450;2023-11-18T14:01:05;7.20;99.90
29413;DHT22;16389;50.126;8.450;2023-11-18T14:03:36;7.20;99.90
29413;DHT22;16389;50.126;8.450;2023-11-18T14:06:09;7.20;99.90
29413;DHT22;16389;50.126;8.450;2023-11-18T14:08:38;7.20;99.90
29413;DHT22;16389;50.126;8.450;2023-11-18T14:11:05;7.20;99.90
29413;DHT22;16389;50.126;8.450;2023-11-18T14:13:32;7.10;99.90
29413;DHT22;16389;50.126;8.450;2023-11-18T14:16:00;7.10;99.90
29413;DHT22;16389;50.126;8.450;2023-11-18T14:18:30;7.10;99.90
29413;DHT22;16389;50.126;8.450;2023-11-18T14:20:56;7.20;99.90
29413;DHT22;16389;50.126;8.450;2023-11-18T14:23:22;7.20;99.90
29413;DHT22;16389;50.126;8.450;2023-11-18T14:25:48;7.20;99.90
29413;DHT22;16389;50.126;8.450;2023-11-18T14:28:15;7.20;99.90
29413;DHT22;16389;50.126;8.450;2023-11-18T14:30:41;7.20;99.90
29413;DHT22;16389;50.126;8.450;2023-11-18T14:33:07;7.20;99.90
29413;DHT22;16389;50.126;8.450;2023-11-18T14:35:34;7.10;99.90
29413;DHT22;16389;50.126;8.450;2023-11-18T14:38:03;7.20;99.90
29413;DHT22;16389;50.126;8.450;2023-11-18T14:40:29;7.20;99.90
29413;DHT22;16389;50.126;8.450;2023-11-18T14:42:55;7.20;99.90
29413;DHT22;16389;50.126;8.450;2023-11-18T14:45:20;7.20;99.90
29413;DHT22;16389;50.126;8.450;2023-11-18T14:47:47;7.20;99.90
29413;DHT22;16389;50.126;8.450;2023-11-18T14:50:22;7.20;99.90
29413;DHT22;16389;50.126;8.450;2023-11-18T14:52:50;7.10;99.90
29413;DHT22;16389;50.126;8.450;2023-11-18T14:55:32;7.10;99.90
29413;DHT22;16389;50.126;8.450;2023-11-18T14:57:58;7.10;99.90
29413;DHT22;16389;50.126;8.450;2023-11-18T15:00:27;7.10;99.90
29413;DHT22;16389;50.126;8.450;2023-11-18T15:02:58;7.10;99.90
29413;DHT22;16389;50.126;8.450;2023-11-18T15:05:24;7.10;99.90
29413;DHT22;16389;50.126;8.450;2023-11-18T15:08:04;7.10;99.90
29413;DHT22;16389;50.126;8.450;2023-11-18T15:10:35;7.10;99.90
29413;DHT22;16389;50.126;8.450;2023-11-18T15:13:03;7.20;99.90
29413;DHT22;16389;50.126;8.450;2023-11-18T15:15:32;7.10;99.90
29413;DHT22;16389;50.126;8.450;2023-11-18T15:18:01;7.10;99.90
29413;DHT22;16389;50.126;8.450;2023-11-18T15:20:34;7.20;99.90
29413;DHT22;16389;50.126;8.450;2023-11-18T15:23:03;7.10;99.90
29413;DHT22;16389;50.126;8.450;2023-11-18T15:25:30;7.10;99.90
29413;DHT22;16389;50.126;8.450;2023-11-18T15:27:56;7.10;99.90
29413;DHT22;16389;50.126;8.450;2023-11-18T15:30:25;7.10;99.90
29413;DHT22;16389;50.126;8.450;2023-11-18T15:32:53;7.10;99.90
29413;DHT22;16389;50.126;8.450;2023-11-18T15:35:22;7.10;99.90
29413;DHT22;16389;50.126;8.450;2023-11-18T15:37:49;7.10;99.90
29413;DHT22;16389;50.126;8.450;2023-11-18T15:40:17;7.10;99.90
29413;DHT22;16389;50.126;8.450;2023-11-18T15:42:48;7.10;99.90
29413;DHT22;16389;50.126;8.450;2023-11-18T15:45:18;7.10;99.90
29413;DHT22;16389;50.126;8.450;2023-11-18T15:47:45;7.10;99.90
29413;DHT22;16389;50.126;8.450;2023-11-18T15:50:12;7.10;99.90
29413;DHT22;16389;50.126;8.450;2023-11-18T15:52:41;7.00;99.90
29413;DHT22;16389;50.126;8.450;2023-11-18T15:55:08;7.10;99.90
29413;DHT22;16389;50.126;8.450;2023-11-18T15:57:44;7.10;99.90
29413;DHT22;16389;50.126;8.450;2023-11-18T16:00:14;7.10;99.90
29413;DHT22;16389;50.126;8.450;2023-11-18T16:02:47;7.00;99.90
29413;DHT22;16389;50.126;8.450;2023-11-18T16:05:19;7.00;99.90
29413;DHT22;16389;50.126;8.450;2023-11-18T16:07:48;7.00;99.90
29413;DHT22;16389;50.126;8.450;2023-11-18T16:10:15;7.10;99.90
29413;DHT22;16389;50.126;8.450;2023-11-18T16:12:49;7.00;99.90
29413;DHT22;16389;50.126;8.450;2023-11-18T16:15:19;7.00;99.90
29413;DHT22;16389;50.126;8.450;2023-11-18T16:17:46;6.90;99.90
29413;DHT22;16389;50.126;8.450;2023-11-18T16:20:12;6.90;99.90